createdAt,value
2022-10-18T00:00:58.368Z,4.63
2022-10-18T00:03:25.831Z,4.60
2022-10-18T00:05:53.393Z,4.33
2022-10-18T00:08:21.157Z,4.57
2022-10-18T00:10:49.268Z,5.10
2022-10-18T00:13:16.878Z,4.50
2022-10-18T00:15:57.271Z,4.80
2022-10-18T00:18:25.258Z,4.93
2022-10-18T00:21:05.266Z,4.27
2022-10-18T00:23:33.293Z,4.50
2022-10-18T00:26:01.805Z,5.10
2022-10-18T00:28:29.131Z,4.97
2022-10-18T00:30:57.003Z,5.00
2022-10-18T00:33:24.208Z,4.53
2022-10-18T00:35:51.480Z,5.00
2022-10-18T00:38:18.760Z,4.97
2022-10-18T00:40:46.142Z,4.40
2022-10-18T00:43:16.213Z,4.80
2022-10-18T00:45:43.352Z,4.90
2022-10-18T00:48:12.719Z,5.33
2022-10-18T00:50:40.724Z,5.07
2022-10-18T00:53:12.874Z,4.83
2022-10-18T00:55:40.163Z,4.67
2022-10-18T00:58:08.689Z,4.50
2022-10-18T01:00:39.341Z,5.17
2022-10-18T01:03:08.545Z,4.13
2022-10-18T01:05:44.887Z,4.50
2022-10-18T01:08:44.867Z,5.50
2022-10-18T01:11:47.226Z,4.90
2022-10-18T01:14:44.914Z,4.17
2022-10-18T01:17:24.265Z,5.00
2022-10-18T01:20:16.265Z,4.73
2022-10-18T01:23:19.006Z,4.90
2022-10-18T01:26:00.262Z,4.17
2022-10-18T01:28:27.441Z,4.70
2022-10-18T01:30:57.625Z,4.53
2022-10-18T01:33:41.203Z,4.47
2022-10-18T01:36:25.838Z,4.87
2022-10-18T01:38:57.522Z,4.30
2022-10-18T01:41:27.232Z,4.63
2022-10-18T01:44:03.148Z,5.10
2022-10-18T01:46:30.911Z,4.40
2022-10-18T01:48:58.643Z,4.77
2022-10-18T01:51:31.394Z,4.57
2022-10-18T01:53:58.903Z,5.07
2022-10-18T01:56:41.079Z,4.77
2022-10-18T01:59:37.886Z,4.67
2022-10-18T02:02:19.069Z,4.77
2022-10-18T02:05:17.095Z,4.63
2022-10-18T02:08:12.679Z,4.70
2022-10-18T02:11:02.453Z,4.83
2022-10-18T02:13:35.384Z,4.30
2022-10-18T02:16:07.748Z,4.77
2022-10-18T02:18:40.693Z,5.03
2022-10-18T02:21:12.152Z,4.63
2022-10-18T02:23:39.764Z,4.50
2022-10-18T02:26:07.397Z,4.13
2022-10-18T02:28:34.797Z,4.43
2022-10-18T02:31:33.268Z,4.00
2022-10-18T02:34:24.475Z,4.37
2022-10-18T02:36:55.049Z,4.77
2022-10-18T02:39:35.844Z,4.30
2022-10-18T02:42:08.015Z,3.80
2022-10-18T02:44:35.778Z,4.30
2022-10-18T02:47:03.932Z,4.37
2022-10-18T02:49:31.155Z,4.40
2022-10-18T02:51:58.295Z,4.10
2022-10-18T02:54:25.748Z,4.37
2022-10-18T02:56:52.902Z,4.10
2022-10-18T02:59:20.491Z,4.03
2022-10-18T03:01:47.714Z,4.70
2022-10-18T03:04:15.229Z,4.33
2022-10-18T03:06:42.447Z,3.97
2022-10-18T03:09:10.063Z,4.00
2022-10-18T03:11:37.381Z,3.73
2022-10-18T03:14:04.537Z,3.83
2022-10-18T03:16:31.870Z,4.40
2022-10-18T03:18:59.014Z,4.37
2022-10-18T03:21:26.517Z,4.20
2022-10-18T03:23:53.811Z,4.00
2022-10-18T03:26:21.591Z,4.40
2022-10-18T03:28:48.860Z,4.20
2022-10-18T03:31:16.063Z,4.07
2022-10-18T03:33:43.281Z,3.83
2022-10-18T03:36:10.756Z,3.70
2022-10-18T03:38:40.658Z,4.00
2022-10-18T03:41:08.309Z,3.60
2022-10-18T03:43:35.516Z,3.70
2022-10-18T03:46:02.988Z,3.53
2022-10-18T03:48:30.261Z,3.50
2022-10-18T03:50:57.512Z,3.40
2022-10-18T03:53:25.093Z,3.30
2022-10-18T03:55:54.202Z,3.60
2022-10-18T03:58:21.975Z,3.40
2022-10-18T04:00:53.699Z,3.80
2022-10-18T04:03:22.258Z,3.60
2022-10-18T04:05:49.956Z,3.80
2022-10-18T04:08:17.912Z,3.47
2022-10-18T04:10:45.808Z,4.10
2022-10-18T04:13:13.149Z,3.77
2022-10-18T04:15:40.695Z,3.70
2022-10-18T04:18:07.896Z,3.63
2022-10-18T04:20:35.097Z,3.50
2022-10-18T04:23:02.308Z,4.20
2022-10-18T04:25:29.565Z,3.97
2022-10-18T04:27:56.808Z,4.23
2022-10-18T04:30:24.304Z,3.93
2022-10-18T04:32:51.445Z,3.80
2022-10-18T04:35:19.807Z,3.33
2022-10-18T04:37:47.104Z,3.87
2022-10-18T04:40:14.327Z,4.07
2022-10-18T04:42:41.457Z,3.93
2022-10-18T04:45:09.056Z,3.93
2022-10-18T04:47:36.401Z,3.97
2022-10-18T04:50:04.792Z,3.97
2022-10-18T04:52:32.176Z,3.73
2022-10-18T04:54:59.299Z,3.97
2022-10-18T04:57:26.508Z,4.30
2022-10-18T04:59:53.656Z,3.97
2022-10-18T05:02:20.839Z,4.10
2022-10-18T05:04:48.029Z,4.00
2022-10-18T05:07:15.348Z,3.63
2022-10-18T05:09:42.609Z,3.40
2022-10-18T05:12:09.908Z,3.70
2022-10-18T05:14:37.175Z,3.80
2022-10-18T05:17:04.613Z,3.60
2022-10-18T05:19:31.802Z,3.60
2022-10-18T05:21:59.359Z,3.90
2022-10-18T05:24:27.772Z,3.77
2022-10-18T05:26:55.092Z,4.23
2022-10-18T05:29:22.666Z,3.80
2022-10-18T05:31:50.263Z,4.17
2022-10-18T05:34:18.292Z,4.77
2022-10-18T05:36:45.656Z,5.23
2022-10-18T05:39:12.908Z,5.10
2022-10-18T05:41:40.071Z,4.20
2022-10-18T05:44:07.346Z,3.87
2022-10-18T05:46:34.571Z,4.10
2022-10-18T05:49:01.784Z,3.67
2022-10-18T05:51:29.101Z,3.83
2022-10-18T05:53:56.315Z,3.70
2022-10-18T05:56:23.458Z,3.77
2022-10-18T05:58:52.099Z,3.77
2022-10-18T06:01:19.595Z,3.63
2022-10-18T06:03:47.365Z,4.43
2022-10-18T06:06:15.312Z,4.20
2022-10-18T06:08:44.093Z,3.90
2022-10-18T06:11:14.394Z,4.40
2022-10-18T06:13:43.051Z,4.40
2022-10-18T06:16:11.450Z,4.40
2022-10-18T06:18:39.050Z,4.00
2022-10-18T06:21:07.216Z,4.30
2022-10-18T06:23:34.664Z,4.50
2022-10-18T06:26:04.706Z,4.40
2022-10-18T06:28:33.950Z,5.23
2022-10-18T06:31:01.340Z,4.10
2022-10-18T06:33:31.041Z,4.20
2022-10-18T06:36:00.634Z,4.83
2022-10-18T06:38:29.174Z,4.33
2022-10-18T06:40:57.745Z,3.93
2022-10-18T06:43:25.696Z,3.60
2022-10-18T06:45:53.760Z,3.80
2022-10-18T06:48:21.773Z,4.10
2022-10-18T06:50:57.839Z,3.87
2022-10-18T06:53:30.400Z,4.87
2022-10-18T06:56:10.601Z,4.20
2022-10-18T06:58:38.703Z,4.20
2022-10-18T07:01:11.284Z,4.23
2022-10-18T07:03:38.906Z,3.83
2022-10-18T07:06:08.425Z,3.87
2022-10-18T07:08:36.569Z,3.50
2022-10-18T07:11:04.691Z,3.90
2022-10-18T07:13:33.478Z,3.97
2022-10-18T07:16:02.495Z,4.07
2022-10-18T07:18:29.876Z,3.63
2022-10-18T07:20:57.092Z,3.70
2022-10-18T07:23:24.273Z,4.10
2022-10-18T07:25:51.608Z,3.83
2022-10-18T07:28:18.853Z,4.40
2022-10-18T07:30:45.989Z,4.60
2022-10-18T07:33:13.221Z,5.00
2022-10-18T07:35:40.384Z,4.30
2022-10-18T07:38:07.641Z,4.53
2022-10-18T07:40:34.811Z,3.80
2022-10-18T07:43:04.623Z,4.20
2022-10-18T07:45:32.347Z,3.90
2022-10-18T07:47:59.639Z,4.00
2022-10-18T07:50:26.795Z,3.80
2022-10-18T07:52:54.017Z,3.63
2022-10-18T07:55:21.152Z,3.90
2022-10-18T07:57:48.617Z,3.63
2022-10-18T08:00:15.918Z,3.90
2022-10-18T08:02:43.126Z,3.73
2022-10-18T08:05:10.248Z,3.73
2022-10-18T08:07:37.502Z,3.80
2022-10-18T08:10:05.092Z,3.70
2022-10-18T08:12:32.621Z,3.87
2022-10-18T08:14:59.788Z,3.63
2022-10-18T08:17:26.923Z,3.90
2022-10-18T08:20:11.475Z,3.50
2022-10-18T08:22:41.299Z,3.97
2022-10-18T08:25:08.992Z,3.67
2022-10-18T08:27:36.164Z,5.27
2022-10-18T08:30:03.510Z,4.60
2022-10-18T08:32:30.971Z,4.07
2022-10-18T08:34:58.384Z,3.80
2022-10-18T08:37:25.600Z,4.43
2022-10-18T08:39:52.762Z,4.43
2022-10-18T08:42:40.952Z,4.37
2022-10-18T08:45:18.037Z,4.60
2022-10-18T08:47:58.036Z,4.70
2022-10-18T08:50:35.305Z,4.20
2022-10-18T08:53:27.548Z,4.00
2022-10-18T08:56:06.020Z,4.40
2022-10-18T08:58:33.616Z,4.70
2022-10-18T09:01:19.615Z,4.43
2022-10-18T09:03:58.760Z,4.10
2022-10-18T09:06:44.653Z,5.20
2022-10-18T09:09:30.527Z,4.70
2022-10-18T09:12:15.831Z,4.80
2022-10-18T09:15:06.372Z,4.13
2022-10-18T09:17:59.249Z,5.10
2022-10-18T09:20:35.897Z,6.07
2022-10-18T09:23:21.044Z,4.07
2022-10-18T09:25:54.777Z,5.00
2022-10-18T09:28:43.210Z,4.80
2022-10-18T09:31:19.532Z,5.83
2022-10-18T09:34:05.418Z,9.10
2022-10-18T09:36:37.043Z,5.27
2022-10-18T09:39:16.606Z,4.07
2022-10-18T09:41:52.842Z,4.90
2022-10-18T09:44:31.903Z,4.20
2022-10-18T09:47:13.387Z,4.60
2022-10-18T09:49:49.650Z,5.27
2022-10-18T09:52:27.786Z,4.57
2022-10-18T09:55:01.082Z,5.43
2022-10-18T09:57:37.451Z,4.73
2022-10-18T10:00:07.059Z,5.27
2022-10-18T10:02:34.448Z,4.70
2022-10-18T10:05:01.740Z,4.20
2022-10-18T10:07:47.423Z,4.63
2022-10-18T10:10:14.566Z,4.00
2022-10-18T10:12:42.532Z,3.90
2022-10-18T10:15:12.898Z,4.27
2022-10-18T10:17:40.539Z,4.27
2022-10-18T10:20:33.767Z,4.23
2022-10-18T10:23:20.938Z,4.10
2022-10-18T10:25:53.689Z,4.50
2022-10-18T10:28:26.026Z,3.73
2022-10-18T10:30:53.237Z,4.40
2022-10-18T10:33:38.079Z,4.83
2022-10-18T10:36:20.249Z,4.33
2022-10-18T10:39:06.675Z,4.67
2022-10-18T10:41:34.721Z,4.23
2022-10-18T10:44:13.720Z,4.20
2022-10-18T10:46:40.992Z,4.67
2022-10-18T10:49:41.272Z,4.10
2022-10-18T10:52:27.682Z,3.90
2022-10-18T10:55:23.663Z,4.00
2022-10-18T10:57:56.154Z,3.83
2022-10-18T11:00:37.620Z,4.20
2022-10-18T11:03:34.549Z,4.03
2022-10-18T11:06:01.876Z,4.10
2022-10-18T11:08:38.602Z,4.10
2022-10-18T11:11:16.963Z,4.53
2022-10-18T11:13:57.006Z,4.43
2022-10-18T11:17:09.028Z,4.80
2022-10-18T11:20:23.969Z,7.70
2022-10-18T11:23:01.771Z,4.60
2022-10-18T11:25:56.307Z,5.57
2022-10-18T11:28:44.375Z,3.90
2022-10-18T11:31:33.440Z,3.77
2022-10-18T11:34:27.105Z,4.00
2022-10-18T11:37:38.739Z,3.47
2022-10-18T11:40:26.445Z,5.10
2022-10-18T11:43:00.716Z,4.27
2022-10-18T11:45:38.653Z,11.57
2022-10-18T11:48:13.132Z,8.23
2022-10-18T11:50:53.016Z,5.97
2022-10-18T11:53:25.116Z,4.37
2022-10-18T11:55:54.981Z,4.00
2022-10-18T11:58:41.555Z,4.03
2022-10-18T12:01:15.856Z,3.87
2022-10-18T12:04:18.397Z,4.03
2022-10-18T12:06:48.866Z,3.70
2022-10-18T12:09:34.332Z,3.63
2022-10-18T12:12:08.825Z,3.97
2022-10-18T12:14:42.728Z,3.70
2022-10-18T12:17:50.034Z,3.80
2022-10-18T12:20:27.257Z,3.50
2022-10-18T12:23:07.460Z,4.00
2022-10-18T12:25:38.566Z,3.80
2022-10-18T12:28:31.234Z,3.73
2022-10-18T12:31:16.643Z,3.97
2022-10-18T12:33:55.532Z,3.63
2022-10-18T12:36:22.660Z,3.40
2022-10-18T12:39:00.207Z,4.20
2022-10-18T12:41:30.413Z,3.93
2022-10-18T12:44:07.583Z,3.90
2022-10-18T12:46:53.486Z,3.60
2022-10-18T12:49:28.676Z,4.83
2022-10-18T12:52:02.025Z,4.07
2022-10-18T12:54:38.248Z,4.30
2022-10-18T12:57:17.794Z,4.20
2022-10-18T12:59:44.946Z,4.53
2022-10-18T13:02:24.589Z,4.00
2022-10-18T13:04:52.134Z,3.83
2022-10-18T13:07:30.642Z,3.87
2022-10-18T13:10:09.899Z,3.77
2022-10-18T13:13:29.611Z,3.53
2022-10-18T13:16:04.113Z,3.47
2022-10-18T13:18:39.121Z,3.80
2022-10-18T13:21:20.949Z,3.30
2022-10-18T13:23:48.179Z,3.77
2022-10-18T13:26:54.070Z,3.97
2022-10-18T13:30:02.656Z,4.23
2022-10-18T13:32:45.759Z,3.60
2022-10-18T13:35:51.788Z,3.73
2022-10-18T13:38:39.929Z,7.33
2022-10-18T13:43:58.988Z,3.60
2022-10-18T13:46:34.949Z,3.70
2022-10-18T13:49:16.818Z,3.53
2022-10-18T13:51:50.396Z,4.00
2022-10-18T13:54:36.060Z,3.50
2022-10-18T13:57:40.792Z,3.83
2022-10-18T14:00:29.895Z,3.67
2022-10-18T14:03:00.351Z,3.90
2022-10-18T14:05:30.822Z,3.70
2022-10-18T14:08:04.747Z,3.97
2022-10-18T14:11:03.036Z,3.87
2022-10-18T14:13:44.168Z,3.63
2022-10-18T14:16:37.071Z,4.00
2022-10-18T14:20:02.498Z,3.80
2022-10-18T14:22:38.547Z,3.93
2022-10-18T14:25:23.069Z,3.87
2022-10-18T14:28:03.660Z,3.60
2022-10-18T14:30:30.994Z,4.27
2022-10-18T14:32:59.634Z,4.40
2022-10-18T14:35:33.154Z,3.93
2022-10-18T14:38:01.889Z,4.17
2022-10-18T14:40:41.421Z,4.80
2022-10-18T14:43:12.185Z,4.20
2022-10-18T14:45:41.110Z,3.43
2022-10-18T14:48:17.731Z,4.50
2022-10-18T14:50:48.228Z,3.90
2022-10-18T14:53:20.920Z,3.70
2022-10-18T14:55:56.436Z,3.90
2022-10-18T14:58:23.964Z,3.73
2022-10-18T15:00:51.282Z,4.17
2022-10-18T15:03:19.084Z,4.00
2022-10-18T15:06:01.556Z,4.80
2022-10-18T15:08:50.854Z,4.20
2022-10-18T15:11:18.658Z,4.47
2022-10-18T15:13:56.524Z,4.60
2022-10-18T15:16:26.557Z,4.20
2022-10-18T15:19:34.310Z,4.10
2022-10-18T15:22:31.894Z,4.70
2022-10-18T15:25:20.628Z,4.47
2022-10-18T15:27:51.300Z,4.40
2022-10-18T15:30:25.562Z,4.40
2022-10-18T15:32:53.973Z,4.40
2022-10-18T15:35:28.840Z,4.47
2022-10-18T15:37:58.083Z,4.03
2022-10-18T15:40:32.783Z,4.17
2022-10-18T15:43:06.188Z,4.00
2022-10-18T15:45:38.053Z,4.47
2022-10-18T15:48:12.816Z,4.40
2022-10-18T15:50:40.892Z,4.00
2022-10-18T15:53:20.644Z,4.00
2022-10-18T15:56:00.640Z,3.33
2022-10-18T15:58:41.080Z,3.87
2022-10-18T16:01:21.048Z,3.67
2022-10-18T16:03:49.502Z,4.03
2022-10-18T16:06:18.399Z,4.17
2022-10-18T16:08:48.664Z,3.83
2022-10-18T16:11:18.849Z,3.87
2022-10-18T16:13:46.584Z,3.90
2022-10-18T16:16:28.107Z,4.27
2022-10-18T16:18:56.533Z,5.10
2022-10-18T16:21:30.440Z,4.03
2022-10-18T16:23:58.246Z,4.10
2022-10-18T16:26:26.747Z,3.93
2022-10-18T16:28:55.273Z,4.43
2022-10-18T16:31:25.444Z,4.60
2022-10-18T16:33:54.020Z,4.90
2022-10-18T16:36:30.157Z,4.20
2022-10-18T16:39:00.748Z,4.70
2022-10-18T16:41:28.229Z,4.43
2022-10-18T16:43:55.384Z,4.93
2022-10-18T16:46:29.999Z,4.90
2022-10-18T16:48:57.485Z,5.43
2022-10-18T16:51:25.482Z,5.27
2022-10-18T16:53:53.785Z,5.10
2022-10-18T16:56:24.177Z,5.53
2022-10-18T16:58:51.700Z,6.10
2022-10-18T17:01:21.942Z,5.87
2022-10-18T17:03:51.975Z,5.80
2022-10-18T17:06:23.290Z,6.33
2022-10-18T17:08:51.546Z,6.70
2022-10-18T17:11:19.911Z,6.37
2022-10-18T17:13:47.308Z,6.97
2022-10-18T17:19:04.261Z,8.00
2022-10-18T17:21:33.675Z,7.83
2022-10-18T17:24:05.836Z,8.47
2022-10-18T17:26:34.070Z,10.07
2022-10-18T17:29:04.733Z,8.83
2022-10-18T17:31:32.932Z,7.90
2022-10-18T17:34:01.639Z,7.90
2022-10-18T17:36:31.221Z,8.37
2022-10-18T17:38:58.618Z,9.63
2022-10-18T17:41:26.430Z,10.67
2022-10-18T17:43:53.683Z,11.47
2022-10-18T17:46:20.997Z,8.63
2022-10-18T17:48:48.172Z,8.23
2022-10-18T17:51:17.058Z,9.67
2022-10-18T17:53:44.749Z,9.47
2022-10-18T17:56:13.110Z,9.70
2022-10-18T17:58:43.038Z,9.47
2022-10-18T18:01:18.027Z,8.47
2022-10-18T18:03:47.451Z,9.60
2022-10-18T18:06:41.345Z,10.60
2022-10-18T18:09:14.415Z,10.57
2022-10-18T18:11:49.536Z,11.33
2022-10-18T18:14:16.928Z,10.77
2022-10-18T18:16:46.412Z,11.00
2022-10-18T18:19:14.467Z,9.37
2022-10-18T18:21:42.948Z,10.03
2022-10-18T18:24:10.816Z,10.43
2022-10-18T18:26:39.736Z,9.03
2022-10-18T18:29:07.266Z,9.53
2022-10-18T18:31:38.843Z,9.73
2022-10-18T18:34:09.591Z,11.83
2022-10-18T18:36:36.875Z,11.80
2022-10-18T18:39:05.663Z,12.93
2022-10-18T18:41:33.165Z,13.43
2022-10-18T18:44:05.368Z,12.20
2022-10-18T18:46:37.839Z,11.97
2022-10-18T18:49:07.004Z,9.57
2022-10-18T18:51:37.332Z,8.93
2022-10-18T18:54:04.887Z,8.30
2022-10-18T18:56:32.062Z,8.10
2022-10-18T18:59:00.193Z,7.33
2022-10-18T19:01:32.895Z,7.77
2022-10-18T19:04:00.492Z,7.77
2022-10-18T19:06:39.713Z,7.93
2022-10-18T19:09:18.961Z,8.50
2022-10-18T19:11:47.668Z,8.00
2022-10-18T19:14:15.222Z,8.63
2022-10-18T19:16:49.993Z,9.03
2022-10-18T19:19:19.554Z,8.93
2022-10-18T19:21:55.430Z,8.63
2022-10-18T19:24:23.910Z,8.33
2022-10-18T19:26:52.099Z,8.30
2022-10-18T19:29:21.876Z,7.77
2022-10-18T19:31:53.273Z,8.23
2022-10-18T19:34:21.678Z,8.57
2022-10-18T19:36:49.659Z,8.60
2022-10-18T19:39:20.856Z,8.80
2022-10-18T19:41:49.628Z,9.17
2022-10-18T19:44:20.026Z,8.07
2022-10-18T19:46:47.611Z,8.07
2022-10-18T19:49:15.325Z,7.73
2022-10-18T19:51:42.833Z,7.63
2022-10-18T19:54:11.975Z,8.97
2022-10-18T19:56:41.025Z,8.90
2022-10-18T19:59:09.288Z,8.30
2022-10-18T20:01:37.351Z,8.43
2022-10-18T20:04:05.250Z,9.03
2022-10-18T20:06:32.804Z,7.80
2022-10-18T20:09:00.532Z,8.47
2022-10-18T20:11:29.507Z,8.30
2022-10-18T20:13:57.302Z,9.30
2022-10-18T20:16:28.615Z,7.87
2022-10-18T20:19:00.777Z,8.30
2022-10-18T20:21:29.824Z,10.60
2022-10-18T20:23:57.387Z,8.70
2022-10-18T20:26:25.470Z,9.77
2022-10-18T20:28:58.769Z,9.47
2022-10-18T20:31:31.388Z,7.90
2022-10-18T20:34:00.834Z,8.60
2022-10-18T20:36:29.897Z,8.23
2022-10-18T20:38:57.638Z,7.70
2022-10-18T20:41:35.962Z,9.30
2022-10-18T20:44:07.017Z,10.50
2022-10-18T20:46:36.610Z,10.03
2022-10-18T20:49:05.860Z,10.53
2022-10-18T20:51:33.845Z,9.20
2022-10-18T20:56:34.007Z,9.77
2022-10-18T20:59:01.950Z,10.17
2022-10-18T21:01:31.586Z,10.67
2022-10-18T21:04:01.724Z,9.10
2022-10-18T21:06:46.873Z,9.53
2022-10-18T21:09:19.572Z,9.47
2022-10-18T21:11:50.758Z,9.13
2022-10-18T21:14:19.732Z,8.83
2022-10-18T21:16:47.761Z,9.10
2022-10-18T21:19:23.829Z,9.03
2022-10-18T21:21:53.687Z,9.13
2022-10-18T21:24:22.455Z,8.80
2022-10-18T21:26:49.834Z,9.13
2022-10-18T21:29:21.650Z,10.60
2022-10-18T21:31:49.696Z,10.23
2022-10-18T21:34:17.562Z,8.50
2022-10-18T21:36:46.721Z,8.97
2022-10-18T21:39:17.247Z,10.50
2022-10-18T21:41:45.339Z,8.30
2022-10-18T21:44:12.760Z,8.23
2022-10-18T21:46:42.790Z,6.20
2022-10-18T21:49:11.079Z,7.50
2022-10-18T21:51:38.583Z,9.97
2022-10-18T21:54:08.618Z,7.97
2022-10-18T21:56:36.235Z,7.73
2022-10-18T21:59:04.030Z,8.20
2022-10-18T22:01:36.396Z,7.73
2022-10-18T22:04:06.426Z,7.63
2022-10-18T22:09:09.838Z,8.53
2022-10-18T22:11:42.967Z,8.77
2022-10-18T22:14:10.217Z,8.30
2022-10-18T22:16:37.549Z,8.87
2022-10-18T22:19:05.814Z,6.00
2022-10-18T22:21:33.754Z,4.70
2022-10-18T22:24:04.773Z,6.80
2022-10-18T22:26:37.915Z,6.40
2022-10-18T22:29:08.127Z,6.33
2022-10-18T22:31:38.127Z,7.27
2022-10-18T22:34:08.455Z,8.43
2022-10-18T22:36:37.045Z,7.87
2022-10-18T22:39:08.552Z,9.10
2022-10-18T22:41:36.763Z,8.87
2022-10-18T22:44:04.463Z,8.77
2022-10-18T22:46:32.878Z,8.20
2022-10-18T22:49:00.047Z,9.30
2022-10-18T22:51:27.350Z,8.70
2022-10-18T22:53:54.562Z,8.87
2022-10-18T22:56:23.058Z,9.33
2022-10-18T22:58:50.632Z,8.63
2022-10-18T23:01:20.605Z,8.87
2022-10-18T23:03:53.116Z,8.10
2022-10-18T23:06:20.788Z,8.57
2022-10-18T23:08:49.073Z,8.47
2022-10-18T23:11:16.804Z,8.83
2022-10-18T23:13:44.545Z,8.67
2022-10-18T23:16:12.039Z,8.00
2022-10-18T23:21:13.250Z,9.20
2022-10-18T23:23:41.834Z,8.67
2022-10-18T23:26:12.536Z,7.67
2022-10-18T23:28:42.255Z,8.07
2022-10-18T23:31:35.999Z,7.87
2022-10-18T23:34:05.164Z,7.67
2022-10-18T23:36:33.513Z,7.57
2022-10-18T23:39:01.556Z,8.53
2022-10-18T23:41:28.811Z,8.13
2022-10-18T23:43:56.063Z,8.17
2022-10-18T23:46:23.956Z,7.20
2022-10-18T23:48:51.156Z,7.93
2022-10-18T23:51:18.583Z,7.90
2022-10-18T23:53:46.103Z,7.77
2022-10-18T23:56:15.683Z,7.73
2022-10-18T23:58:44.594Z,8.63
